sensor_id;sensor_type;location;lat;lon;timestamp;P1;durP1;ratioP1;P2;durP2;ratioP2
60430;SDS011;46285;45.122;20.726;2022-07-06T00:01:58;12.65;;;7.28;;
60430;SDS011;46285;45.122;20.726;2022-07-06T00:04:24;10.18;;;7.15;;
60430;SDS011;46285;45.122;20.726;2022-07-06T00:06:50;10.25;;;6.53;;
60430;SDS011;46285;45.122;20.726;2022-07-06T00:09:17;13.10;;;7.13;;
60430;SDS011;46285;45.122;20.726;2022-07-06T00:11:43;10.15;;;7.53;;
60430;SDS011;46285;45.122;20.726;2022-07-06T00:14:09;10.52;;;7.18;;
60430;SDS011;46285;45.122;20.726;2022-07-06T00:16:36;8.93;;;6.63;;
60430;SDS011;46285;45.122;20.726;2022-07-06T00:19:02;10.25;;;8.48;;
60430;SDS011;46285;45.122;20.726;2022-07-06T00:21:28;11.20;;;7.32;;
60430;SDS011;46285;45.122;20.726;2022-07-06T00:23:54;10.63;;;8.65;;
60430;SDS011;46285;45.122;20.726;2022-07-06T00:26:21;10.85;;;8.25;;
60430;SDS011;46285;45.122;20.726;2022-07-06T00:28:47;12.85;;;8.20;;
60430;SDS011;46285;45.122;20.726;2022-07-06T00:31:13;11.95;;;9.48;;
60430;SDS011;46285;45.122;20.726;2022-07-06T00:33:39;12.02;;;9.85;;
60430;SDS011;46285;45.122;20.726;2022-07-06T00:36:06;14.98;;;10.02;;
60430;SDS011;46285;45.122;20.726;2022-07-06T00:38:32;14.13;;;10.20;;
60430;SDS011;46285;45.122;20.726;2022-07-06T00:40:58;14.45;;;10.27;;
60430;SDS011;46285;45.122;20.726;2022-07-06T00:43:24;14.20;;;10.98;;
60430;SDS011;46285;45.122;20.726;2022-07-06T00:45:51;18.73;;;14.02;;
60430;SDS011;46285;45.122;20.726;2022-07-06T00:48:17;13.65;;;11.20;;
60430;SDS011;46285;45.122;20.726;2022-07-06T00:50:43;16.75;;;12.35;;
60430;SDS011;46285;45.122;20.726;2022-07-06T00:53:09;14.88;;;11.88;;
60430;SDS011;46285;45.122;20.726;2022-07-06T00:55:37;14.48;;;12.18;;
60430;SDS011;46285;45.122;20.726;2022-07-06T00:58:06;14.95;;;12.73;;
60430;SDS011;46285;45.122;20.726;2022-07-06T01:00:33;17.10;;;13.60;;
60430;SDS011;46285;45.122;20.726;2022-07-06T01:02:59;18.55;;;14.02;;
60430;SDS011;46285;45.122;20.726;2022-07-06T01:05:25;15.77;;;13.45;;
60430;SDS011;46285;45.122;20.726;2022-07-06T01:07:52;14.82;;;13.20;;
60430;SDS011;46285;45.122;20.726;2022-07-06T01:10:19;18.20;;;14.90;;
60430;SDS011;46285;45.122;20.726;2022-07-06T01:12:46;16.35;;;13.52;;
60430;SDS011;46285;45.122;20.726;2022-07-06T01:15:14;16.08;;;14.13;;
60430;SDS011;46285;45.122;20.726;2022-07-06T01:20:16;17.17;;;14.10;;
60430;SDS011;46285;45.122;20.726;2022-07-06T01:22:43;15.35;;;13.75;;
60430;SDS011;46285;45.122;20.726;2022-07-06T01:25:09;15.77;;;14.07;;
60430;SDS011;46285;45.122;20.726;2022-07-06T01:27:36;19.80;;;15.10;;
60430;SDS011;46285;45.122;20.726;2022-07-06T01:30:07;17.83;;;14.30;;
60430;SDS011;46285;45.122;20.726;2022-07-06T01:32:34;17.02;;;14.57;;
60430;SDS011;46285;45.122;20.726;2022-07-06T01:35:00;20.73;;;14.43;;
60430;SDS011;46285;45.122;20.726;2022-07-06T01:37:27;19.20;;;15.70;;
60430;SDS011;46285;45.122;20.726;2022-07-06T01:39:53;15.75;;;13.23;;
60430;SDS011;46285;45.122;20.726;2022-07-06T01:42:19;18.85;;;14.57;;
60430;SDS011;46285;45.122;20.726;2022-07-06T01:44:45;22.60;;;15.18;;
60430;SDS011;46285;45.122;20.726;2022-07-06T01:47:12;17.83;;;14.82;;
60430;SDS011;46285;45.122;20.726;2022-07-06T01:49:38;18.65;;;13.98;;
60430;SDS011;46285;45.122;20.726;2022-07-06T01:52:04;17.63;;;14.02;;
60430;SDS011;46285;45.122;20.726;2022-07-06T01:54:30;17.17;;;14.52;;
60430;SDS011;46285;45.122;20.726;2022-07-06T01:56:56;22.45;;;14.40;;
60430;SDS011;46285;45.122;20.726;2022-07-06T01:59:22;15.60;;;13.95;;
60430;SDS011;46285;45.122;20.726;2022-07-06T02:01:49;17.42;;;15.38;;
60430;SDS011;46285;45.122;20.726;2022-07-06T02:04:15;16.70;;;14.88;;
60430;SDS011;46285;45.122;20.726;2022-07-06T02:06:41;18.20;;;15.02;;
60430;SDS011;46285;45.122;20.726;2022-07-06T02:09:07;21.63;;;16.38;;
60430;SDS011;46285;45.122;20.726;2022-07-06T02:11:33;17.50;;;14.40;;
60430;SDS011;46285;45.122;20.726;2022-07-06T02:14:00;18.20;;;15.63;;
60430;SDS011;46285;45.122;20.726;2022-07-06T02:16:26;18.08;;;15.60;;
60430;SDS011;46285;45.122;20.726;2022-07-06T02:18:52;18.52;;;15.50;;
60430;SDS011;46285;45.122;20.726;2022-07-06T02:21:18;22.20;;;15.77;;
60430;SDS011;46285;45.122;20.726;2022-07-06T02:23:44;20.00;;;15.10;;
60430;SDS011;46285;45.122;20.726;2022-07-06T02:26:10;19.50;;;15.30;;
60430;SDS011;46285;45.122;20.726;2022-07-06T02:28:37;19.95;;;16.50;;
60430;SDS011;46285;45.122;20.726;2022-07-06T02:31:03;16.17;;;14.07;;
60430;SDS011;46285;45.122;20.726;2022-07-06T02:33:30;17.38;;;13.80;;
60430;SDS011;46285;45.122;20.726;2022-07-06T02:35:56;18.40;;;13.77;;
60430;SDS011;46285;45.122;20.726;2022-07-06T02:38:22;17.27;;;13.85;;
60430;SDS011;46285;45.122;20.726;2022-07-06T02:40:48;15.18;;;13.57;;
60430;SDS011;46285;45.122;20.726;2022-07-06T02:43:14;15.50;;;13.82;;
60430;SDS011;46285;45.122;20.726;2022-07-06T02:45:40;15.95;;;13.40;;
60430;SDS011;46285;45.122;20.726;2022-07-06T02:48:07;16.98;;;13.68;;
60430;SDS011;46285;45.122;20.726;2022-07-06T02:50:33;16.60;;;13.25;;
60430;SDS011;46285;45.122;20.726;2022-07-06T02:52:59;17.17;;;13.27;;
60430;SDS011;46285;45.122;20.726;2022-07-06T02:57:53;16.52;;;13.60;;
60430;SDS011;46285;45.122;20.726;2022-07-06T03:00:19;21.23;;;14.10;;
60430;SDS011;46285;45.122;20.726;2022-07-06T03:02:45;18.48;;;13.27;;
60430;SDS011;46285;45.122;20.726;2022-07-06T03:05:11;16.42;;;12.35;;
60430;SDS011;46285;45.122;20.726;2022-07-06T03:07:37;16.38;;;13.88;;
60430;SDS011;46285;45.122;20.726;2022-07-06T03:10:03;15.65;;;12.27;;
60430;SDS011;46285;45.122;20.726;2022-07-06T03:12:30;15.27;;;13.55;;
60430;SDS011;46285;45.122;20.726;2022-07-06T03:14:56;18.92;;;12.27;;
60430;SDS011;46285;45.122;20.726;2022-07-06T03:17:22;21.77;;;12.32;;
60430;SDS011;46285;45.122;20.726;2022-07-06T03:19:48;15.23;;;13.63;;
60430;SDS011;46285;45.122;20.726;2022-07-06T03:22:14;19.60;;;12.93;;
60430;SDS011;46285;45.122;20.726;2022-07-06T03:24:41;16.17;;;12.48;;
60430;SDS011;46285;45.122;20.726;2022-07-06T03:27:07;13.90;;;11.10;;
60430;SDS011;46285;45.122;20.726;2022-07-06T03:29:33;17.15;;;12.13;;
60430;SDS011;46285;45.122;20.726;2022-07-06T03:31:59;16.90;;;12.43;;
60430;SDS011;46285;45.122;20.726;2022-07-06T03:34:26;13.38;;;11.55;;
60430;SDS011;46285;45.122;20.726;2022-07-06T03:36:52;15.85;;;12.13;;
60430;SDS011;46285;45.122;20.726;2022-07-06T03:39:18;15.73;;;12.50;;
60430;SDS011;46285;45.122;20.726;2022-07-06T03:41:44;15.73;;;12.35;;
60430;SDS011;46285;45.122;20.726;2022-07-06T03:44:10;16.77;;;12.93;;
60430;SDS011;46285;45.122;20.726;2022-07-06T03:46:37;14.88;;;11.27;;
60430;SDS011;46285;45.122;20.726;2022-07-06T03:49:03;14.57;;;10.90;;
60430;SDS011;46285;45.122;20.726;2022-07-06T03:51:29;14.25;;;10.77;;
60430;SDS011;46285;45.122;20.726;2022-07-06T03:53:55;14.98;;;11.65;;
60430;SDS011;46285;45.122;20.726;2022-07-06T03:56:21;13.68;;;10.38;;
60430;SDS011;46285;45.122;20.726;2022-07-06T03:58:57;14.13;;;10.48;;
60430;SDS011;46285;45.122;20.726;2022-07-06T04:01:23;10.57;;;9.25;;
60430;SDS011;46285;45.122;20.726;2022-07-06T04:03:49;15.00;;;10.07;;
60430;SDS011;46285;45.122;20.726;2022-07-06T04:06:15;13.70;;;9.90;;
60430;SDS011;46285;45.122;20.726;2022-07-06T04:08:42;9.90;;;8.30;;
60430;SDS011;46285;45.122;20.726;2022-07-06T04:11:08;10.20;;;8.23;;
60430;SDS011;46285;45.122;20.726;2022-07-06T04:13:34;9.60;;;7.97;;
60430;SDS011;46285;45.122;20.726;2022-07-06T04:16:00;10.60;;;8.02;;
60430;SDS011;46285;45.122;20.726;2022-07-06T04:18:26;10.15;;;7.07;;
60430;SDS011;46285;45.122;20.726;2022-07-06T04:20:53;10.35;;;6.63;;
60430;SDS011;46285;45.122;20.726;2022-07-06T04:23:19;9.50;;;5.95;;
60430;SDS011;46285;45.122;20.726;2022-07-06T04:25:45;11.23;;;5.85;;
60430;SDS011;46285;45.122;20.726;2022-07-06T04:28:11;8.35;;;5.63;;
60430;SDS011;46285;45.122;20.726;2022-07-06T04:30:37;13.50;;;6.25;;
60430;SDS011;46285;45.122;20.726;2022-07-06T04:33:03;12.45;;;6.38;;
60430;SDS011;46285;45.122;20.726;2022-07-06T04:35:29;8.68;;;5.38;;
60430;SDS011;46285;45.122;20.726;2022-07-06T04:37:55;18.90;;;6.28;;
60430;SDS011;46285;45.122;20.726;2022-07-06T04:40:22;7.32;;;5.07;;
60430;SDS011;46285;45.122;20.726;2022-07-06T04:42:48;8.68;;;5.75;;
60430;SDS011;46285;45.122;20.726;2022-07-06T04:45:14;8.52;;;5.07;;
60430;SDS011;46285;45.122;20.726;2022-07-06T04:47:40;6.40;;;5.10;;
60430;SDS011;46285;45.122;20.726;2022-07-06T04:50:08;7.35;;;5.30;;
60430;SDS011;46285;45.122;20.726;2022-07-06T04:52:34;9.38;;;4.95;;
60430;SDS011;46285;45.122;20.726;2022-07-06T04:55:01;11.82;;;5.60;;
60430;SDS011;46285;45.122;20.726;2022-07-06T04:57:34;9.23;;;4.90;;
60430;SDS011;46285;45.122;20.726;2022-07-06T05:00:02;6.78;;;4.80;;
60430;SDS011;46285;45.122;20.726;2022-07-06T05:02:29;7.88;;;5.25;;
60430;SDS011;46285;45.122;20.726;2022-07-06T05:04:55;8.38;;;5.68;;
60430;SDS011;46285;45.122;20.726;2022-07-06T05:07:21;11.30;;;6.20;;
60430;SDS011;46285;45.122;20.726;2022-07-06T05:09:47;8.40;;;5.07;;
60430;SDS011;46285;45.122;20.726;2022-07-06T05:12:14;7.88;;;5.55;;
60430;SDS011;46285;45.122;20.726;2022-07-06T05:14:41;8.93;;;5.30;;
60430;SDS011;46285;45.122;20.726;2022-07-06T05:17:08;8.38;;;5.88;;
60430;SDS011;46285;45.122;20.726;2022-07-06T05:19:34;7.13;;;5.18;;
60430;SDS011;46285;45.122;20.726;2022-07-06T05:22:00;6.85;;;5.05;;
60430;SDS011;46285;45.122;20.726;2022-07-06T05:24:26;11.30;;;4.90;;
60430;SDS011;46285;45.122;20.726;2022-07-06T05:26:55;8.23;;;4.97;;
60430;SDS011;46285;45.122;20.726;2022-07-06T05:29:21;8.80;;;4.90;;
60430;SDS011;46285;45.122;20.726;2022-07-06T05:31:47;7.75;;;4.90;;
60430;SDS011;46285;45.122;20.726;2022-07-06T05:34:13;7.00;;;4.82;;
60430;SDS011;46285;45.122;20.726;2022-07-06T05:36:40;5.65;;;3.67;;
60430;SDS011;46285;45.122;20.726;2022-07-06T05:39:06;12.82;;;4.45;;
60430;SDS011;46285;45.122;20.726;2022-07-06T05:41:33;7.30;;;4.15;;
60430;SDS011;46285;45.122;20.726;2022-07-06T05:43:59;6.03;;;4.30;;
60430;SDS011;46285;45.122;20.726;2022-07-06T05:46:25;5.80;;;3.93;;
60430;SDS011;46285;45.122;20.726;2022-07-06T05:48:51;7.25;;;4.03;;
60430;SDS011;46285;45.122;20.726;2022-07-06T05:51:36;8.70;;;4.30;;
60430;SDS011;46285;45.122;20.726;2022-07-06T05:54:02;7.37;;;4.13;;
60430;SDS011;46285;45.122;20.726;2022-07-06T05:56:28;6.60;;;4.60;;
60430;SDS011;46285;45.122;20.726;2022-07-06T05:58:54;6.57;;;4.37;;
60430;SDS011;46285;45.122;20.726;2022-07-06T06:01:21;7.10;;;4.30;;
60430;SDS011;46285;45.122;20.726;2022-07-06T06:03:47;7.38;;;4.65;;
60430;SDS011;46285;45.122;20.726;2022-07-06T06:06:13;8.37;;;4.47;;
60430;SDS011;46285;45.122;20.726;2022-07-06T06:08:39;7.53;;;4.83;;
60430;SDS011;46285;45.122;20.726;2022-07-06T06:11:06;11.23;;;4.50;;
60430;SDS011;46285;45.122;20.726;2022-07-06T06:13:32;11.33;;;4.30;;
60430;SDS011;46285;45.122;20.726;2022-07-06T06:15:58;8.10;;;3.80;;
60430;SDS011;46285;45.122;20.726;2022-07-06T06:18:24;6.15;;;4.38;;
60430;SDS011;46285;45.122;20.726;2022-07-06T06:20:50;9.23;;;3.78;;
60430;SDS011;46285;45.122;20.726;2022-07-06T06:23:16;8.88;;;3.88;;
60430;SDS011;46285;45.122;20.726;2022-07-06T06:25:43;5.40;;;2.95;;
60430;SDS011;46285;45.122;20.726;2022-07-06T06:28:09;7.38;;;3.13;;
60430;SDS011;46285;45.122;20.726;2022-07-06T06:35:31;5.50;;;2.53;;
60430;SDS011;46285;45.122;20.726;2022-07-06T06:37:57;5.55;;;3.13;;
60430;SDS011;46285;45.122;20.726;2022-07-06T06:40:23;5.35;;;2.90;;
60430;SDS011;46285;45.122;20.726;2022-07-06T06:42:49;5.53;;;2.92;;
60430;SDS011;46285;45.122;20.726;2022-07-06T06:45:16;7.50;;;3.25;;
60430;SDS011;46285;45.122;20.726;2022-07-06T06:47:42;7.72;;;4.47;;
60430;SDS011;46285;45.122;20.726;2022-07-06T06:50:08;8.40;;;3.60;;
60430;SDS011;46285;45.122;20.726;2022-07-06T06:52:34;8.27;;;3.87;;
60430;SDS011;46285;45.122;20.726;2022-07-06T06:55:00;6.57;;;3.35;;
60430;SDS011;46285;45.122;20.726;2022-07-06T06:57:26;6.22;;;3.65;;
60430;SDS011;46285;45.122;20.726;2022-07-06T07:02:19;6.25;;;3.33;;
60430;SDS011;46285;45.122;20.726;2022-07-06T07:04:46;5.30;;;3.33;;
60430;SDS011;46285;45.122;20.726;2022-07-06T07:07:12;5.88;;;4.00;;
60430;SDS011;46285;45.122;20.726;2022-07-06T07:09:38;6.00;;;3.50;;
60430;SDS011;46285;45.122;20.726;2022-07-06T07:12:04;7.50;;;3.10;;
60430;SDS011;46285;45.122;20.726;2022-07-06T07:14:31;5.82;;;3.05;;
60430;SDS011;46285;45.122;20.726;2022-07-06T07:16:57;5.27;;;2.67;;
60430;SDS011;46285;45.122;20.726;2022-07-06T07:19:23;9.93;;;3.72;;
60430;SDS011;46285;45.122;20.726;2022-07-06T07:21:49;9.35;;;3.08;;
60430;SDS011;46285;45.122;20.726;2022-07-06T07:24:15;5.82;;;2.90;;
60430;SDS011;46285;45.122;20.726;2022-07-06T07:26:42;6.07;;;3.15;;
60430;SDS011;46285;45.122;20.726;2022-07-06T07:29:08;5.78;;;3.00;;
60430;SDS011;46285;45.122;20.726;2022-07-06T07:31:34;6.28;;;2.88;;
60430;SDS011;46285;45.122;20.726;2022-07-06T07:34:00;6.45;;;2.70;;
60430;SDS011;46285;45.122;20.726;2022-07-06T07:36:26;6.30;;;3.03;;
60430;SDS011;46285;45.122;20.726;2022-07-06T07:38:53;6.03;;;2.88;;
60430;SDS011;46285;45.122;20.726;2022-07-06T07:41:19;6.15;;;3.20;;
60430;SDS011;46285;45.122;20.726;2022-07-06T07:43:45;6.07;;;2.95;;
60430;SDS011;46285;45.122;20.726;2022-07-06T07:46:11;5.63;;;2.70;;
60430;SDS011;46285;45.122;20.726;2022-07-06T07:48:37;5.05;;;2.63;;
60430;SDS011;46285;45.122;20.726;2022-07-06T07:51:03;5.70;;;2.97;;
60430;SDS011;46285;45.122;20.726;2022-07-06T07:53:30;9.13;;;3.13;;
60430;SDS011;46285;45.122;20.726;2022-07-06T07:55:56;5.97;;;3.20;;
60430;SDS011;46285;45.122;20.726;2022-07-06T07:58:22;5.67;;;3.37;;
60430;SDS011;46285;45.122;20.726;2022-07-06T08:00:49;8.02;;;3.22;;
60430;SDS011;46285;45.122;20.726;2022-07-06T08:03:15;4.97;;;2.75;;
60430;SDS011;46285;45.122;20.726;2022-07-06T08:05:41;5.65;;;3.08;;
60430;SDS011;46285;45.122;20.726;2022-07-06T08:08:07;12.68;;;4.13;;
60430;SDS011;46285;45.122;20.726;2022-07-06T08:10:33;7.55;;;3.13;;
60430;SDS011;46285;45.122;20.726;2022-07-06T08:13:00;8.10;;;2.90;;
60430;SDS011;46285;45.122;20.726;2022-07-06T08:15:26;5.43;;;3.03;;
60430;SDS011;46285;45.122;20.726;2022-07-06T08:17:52;5.45;;;2.75;;
60430;SDS011;46285;45.122;20.726;2022-07-06T08:20:19;7.03;;;2.70;;
60430;SDS011;46285;45.122;20.726;2022-07-06T08:22:45;4.90;;;2.83;;
60430;SDS011;46285;45.122;20.726;2022-07-06T08:25:11;6.95;;;2.97;;
60430;SDS011;46285;45.122;20.726;2022-07-06T08:27:37;5.82;;;2.92;;
60430;SDS011;46285;45.122;20.726;2022-07-06T08:30:03;5.97;;;3.10;;
60430;SDS011;46285;45.122;20.726;2022-07-06T08:32:30;6.47;;;2.95;;
60430;SDS011;46285;45.122;20.726;2022-07-06T08:34:56;6.37;;;2.93;;
60430;SDS011;46285;45.122;20.726;2022-07-06T08:37:23;8.30;;;2.85;;
60430;SDS011;46285;45.122;20.726;2022-07-06T08:39:49;6.83;;;2.33;;
60430;SDS011;46285;45.122;20.726;2022-07-06T08:42:16;5.22;;;2.55;;
60430;SDS011;46285;45.122;20.726;2022-07-06T08:44:42;6.28;;;2.47;;
60430;SDS011;46285;45.122;20.726;2022-07-06T08:47:09;5.28;;;2.35;;
60430;SDS011;46285;45.122;20.726;2022-07-06T08:49:35;6.23;;;2.60;;
60430;SDS011;46285;45.122;20.726;2022-07-06T08:52:03;5.65;;;2.40;;
60430;SDS011;46285;45.122;20.726;2022-07-06T08:54:31;5.40;;;2.45;;
60430;SDS011;46285;45.122;20.726;2022-07-06T08:56:57;7.13;;;2.35;;
60430;SDS011;46285;45.122;20.726;2022-07-06T08:59:27;6.68;;;2.65;;
60430;SDS011;46285;45.122;20.726;2022-07-06T09:01:53;7.20;;;3.35;;
60430;SDS011;46285;45.122;20.726;2022-07-06T09:06:46;6.40;;;2.42;;
60430;SDS011;46285;45.122;20.726;2022-07-06T09:09:15;5.30;;;2.35;;
60430;SDS011;46285;45.122;20.726;2022-07-06T09:11:43;6.25;;;2.35;;
60430;SDS011;46285;45.122;20.726;2022-07-06T09:14:09;6.00;;;1.97;;
60430;SDS011;46285;45.122;20.726;2022-07-06T09:16:36;5.30;;;2.30;;
60430;SDS011;46285;45.122;20.726;2022-07-06T09:19:02;6.30;;;2.45;;
60430;SDS011;46285;45.122;20.726;2022-07-06T09:21:31;7.20;;;2.40;;
60430;SDS011;46285;45.122;20.726;2022-07-06T09:23:59;6.38;;;2.60;;
60430;SDS011;46285;45.122;20.726;2022-07-06T09:26:27;7.63;;;2.40;;
60430;SDS011;46285;45.122;20.726;2022-07-06T09:28:57;9.55;;;2.53;;
60430;SDS011;46285;45.122;20.726;2022-07-06T09:31:24;6.13;;;1.90;;
60430;SDS011;46285;45.122;20.726;2022-07-06T09:37:01;6.18;;;1.73;;
60430;SDS011;46285;45.122;20.726;2022-07-06T09:39:24;4.38;;;1.90;;
60430;SDS011;46285;45.122;20.726;2022-07-06T09:42:33;5.13;;;1.73;;
60430;SDS011;46285;45.122;20.726;2022-07-06T09:44:41;5.28;;;1.70;;
60430;SDS011;46285;45.122;20.726;2022-07-06T09:47:19;5.28;;;1.90;;
60430;SDS011;46285;45.122;20.726;2022-07-06T09:49:45;4.35;;;2.13;;
60430;SDS011;46285;45.122;20.726;2022-07-06T09:52:14;6.35;;;1.80;;
60430;SDS011;46285;45.122;20.726;2022-07-06T09:54:41;6.18;;;1.83;;
60430;SDS011;46285;45.122;20.726;2022-07-06T09:57:07;4.88;;;1.67;;
60430;SDS011;46285;45.122;20.726;2022-07-06T09:59:34;5.07;;;1.70;;
60430;SDS011;46285;45.122;20.726;2022-07-06T10:02:02;5.43;;;1.35;;
60430;SDS011;46285;45.122;20.726;2022-07-06T10:04:28;5.57;;;2.30;;
60430;SDS011;46285;45.122;20.726;2022-07-06T10:06:55;5.35;;;1.77;;
60430;SDS011;46285;45.122;20.726;2022-07-06T10:09:22;5.40;;;1.75;;
60430;SDS011;46285;45.122;20.726;2022-07-06T10:11:53;5.25;;;1.75;;
60430;SDS011;46285;45.122;20.726;2022-07-06T10:14:23;7.00;;;2.58;;
60430;SDS011;46285;45.122;20.726;2022-07-06T10:16:50;4.28;;;1.58;;
60430;SDS011;46285;45.122;20.726;2022-07-06T10:19:17;4.53;;;1.48;;
60430;SDS011;46285;45.122;20.726;2022-07-06T10:21:44;5.90;;;1.88;;
60430;SDS011;46285;45.122;20.726;2022-07-06T10:24:10;3.88;;;1.63;;
60430;SDS011;46285;45.122;20.726;2022-07-06T10:26:37;5.88;;;1.60;;
60430;SDS011;46285;45.122;20.726;2022-07-06T10:29:04;5.95;;;1.65;;
60430;SDS011;46285;45.122;20.726;2022-07-06T10:31:30;4.50;;;1.58;;
60430;SDS011;46285;45.122;20.726;2022-07-06T10:33:57;5.32;;;1.77;;
60430;SDS011;46285;45.122;20.726;2022-07-06T10:36:25;5.38;;;1.80;;
60430;SDS011;46285;45.122;20.726;2022-07-06T10:38:51;4.63;;;1.30;;
60430;SDS011;46285;45.122;20.726;2022-07-06T10:41:18;6.18;;;1.75;;
60430;SDS011;46285;45.122;20.726;2022-07-06T10:43:55;7.60;;;2.08;;
60430;SDS011;46285;45.122;20.726;2022-07-06T10:46:23;4.95;;;1.70;;
60430;SDS011;46285;45.122;20.726;2022-07-06T10:48:49;3.90;;;1.42;;
60430;SDS011;46285;45.122;20.726;2022-07-06T10:51:23;5.75;;;1.73;;
60430;SDS011;46285;45.122;20.726;2022-07-06T10:53:57;2.88;;;1.10;;
60430;SDS011;46285;45.122;20.726;2022-07-06T10:56:32;3.33;;;1.20;;
60430;SDS011;46285;45.122;20.726;2022-07-06T10:59:22;4.97;;;1.75;;
60430;SDS011;46285;45.122;20.726;2022-07-06T11:04:33;6.88;;;2.15;;
60430;SDS011;46285;45.122;20.726;2022-07-06T11:07:21;3.80;;;1.30;;
60430;SDS011;46285;45.122;20.726;2022-07-06T11:09:56;3.55;;;1.15;;
60430;SDS011;46285;45.122;20.726;2022-07-06T11:12:22;4.05;;;1.55;;
60430;SDS011;46285;45.122;20.726;2022-07-06T11:14:49;6.22;;;2.42;;
60430;SDS011;46285;45.122;20.726;2022-07-06T11:17:20;8.93;;;2.70;;
60430;SDS011;46285;45.122;20.726;2022-07-06T11:19:57;5.68;;;1.90;;
60430;SDS011;46285;45.122;20.726;2022-07-06T11:22:24;5.25;;;1.60;;
60430;SDS011;46285;45.122;20.726;2022-07-06T11:24:52;4.60;;;1.80;;
60430;SDS011;46285;45.122;20.726;2022-07-06T11:27:22;4.65;;;2.10;;
60430;SDS011;46285;45.122;20.726;2022-07-06T11:29:48;4.55;;;1.60;;
60430;SDS011;46285;45.122;20.726;2022-07-06T11:32:14;4.10;;;1.80;;
60430;SDS011;46285;45.122;20.726;2022-07-06T11:34:41;6.53;;;2.10;;
60430;SDS011;46285;45.122;20.726;2022-07-06T11:37:08;6.15;;;2.00;;
60430;SDS011;46285;45.122;20.726;2022-07-06T11:39:35;7.20;;;2.38;;
60430;SDS011;46285;45.122;20.726;2022-07-06T11:42:04;5.50;;;1.90;;
60430;SDS011;46285;45.122;20.726;2022-07-06T11:44:31;5.38;;;2.20;;
60430;SDS011;46285;45.122;20.726;2022-07-06T11:46:57;4.83;;;1.97;;
60430;SDS011;46285;45.122;20.726;2022-07-06T11:49:26;6.90;;;2.10;;
60430;SDS011;46285;45.122;20.726;2022-07-06T11:51:52;5.23;;;2.10;;
60430;SDS011;46285;45.122;20.726;2022-07-06T11:54:19;5.60;;;2.38;;
60430;SDS011;46285;45.122;20.726;2022-07-06T11:56:46;7.55;;;2.05;;
60430;SDS011;46285;45.122;20.726;2022-07-06T11:59:12;4.85;;;2.10;;
60430;SDS011;46285;45.122;20.726;2022-07-06T12:01:40;6.00;;;2.00;;
60430;SDS011;46285;45.122;20.726;2022-07-06T12:04:09;7.15;;;2.38;;
60430;SDS011;46285;45.122;20.726;2022-07-06T12:06:35;4.72;;;2.10;;
60430;SDS011;46285;45.122;20.726;2022-07-06T12:09:01;8.27;;;2.35;;
60430;SDS011;46285;45.122;20.726;2022-07-06T12:11:35;5.55;;;1.98;;
60430;SDS011;46285;45.122;20.726;2022-07-06T12:14:13;6.90;;;1.80;;
60430;SDS011;46285;45.122;20.726;2022-07-06T12:19:05;5.30;;;2.10;;
60430;SDS011;46285;45.122;20.726;2022-07-06T12:21:33;4.72;;;1.90;;
60430;SDS011;46285;45.122;20.726;2022-07-06T12:23:59;4.07;;;1.63;;
60430;SDS011;46285;45.122;20.726;2022-07-06T12:26:27;5.13;;;2.07;;
60430;SDS011;46285;45.122;20.726;2022-07-06T12:29:02;6.43;;;2.20;;
60430;SDS011;46285;45.122;20.726;2022-07-06T12:31:34;6.82;;;2.15;;
60430;SDS011;46285;45.122;20.726;2022-07-06T12:34:01;5.80;;;1.92;;
60430;SDS011;46285;45.122;20.726;2022-07-06T12:36:28;4.57;;;1.83;;
60430;SDS011;46285;45.122;20.726;2022-07-06T12:38:54;3.60;;;1.73;;
60430;SDS011;46285;45.122;20.726;2022-07-06T12:43:47;8.23;;;2.10;;
60430;SDS011;46285;45.122;20.726;2022-07-06T12:46:27;4.65;;;2.30;;
60430;SDS011;46285;45.122;20.726;2022-07-06T12:48:57;6.85;;;2.30;;
60430;SDS011;46285;45.122;20.726;2022-07-06T12:51:24;5.20;;;2.40;;
60430;SDS011;46285;45.122;20.726;2022-07-06T12:53:51;5.20;;;2.13;;
60430;SDS011;46285;45.122;20.726;2022-07-06T12:56:17;7.32;;;2.20;;
60430;SDS011;46285;45.122;20.726;2022-07-06T12:59:00;6.65;;;1.98;;
60430;SDS011;46285;45.122;20.726;2022-07-06T13:01:26;7.72;;;1.70;;
60430;SDS011;46285;45.122;20.726;2022-07-06T13:03:56;4.18;;;1.83;;
60430;SDS011;46285;45.122;20.726;2022-07-06T13:06:30;16.52;;;3.03;;
60430;SDS011;46285;45.122;20.726;2022-07-06T13:08:56;6.38;;;1.90;;
60430;SDS011;46285;45.122;20.726;2022-07-06T13:11:22;4.18;;;1.90;;
60430;SDS011;46285;45.122;20.726;2022-07-06T13:13:49;4.43;;;1.87;;
60430;SDS011;46285;45.122;20.726;2022-07-06T13:16:15;5.97;;;2.13;;
60430;SDS011;46285;45.122;20.726;2022-07-06T13:18:41;6.45;;;2.20;;
60430;SDS011;46285;45.122;20.726;2022-07-06T13:21:11;5.90;;;1.88;;
60430;SDS011;46285;45.122;20.726;2022-07-06T13:23:37;9.20;;;2.10;;
60430;SDS011;46285;45.122;20.726;2022-07-06T13:26:03;5.77;;;2.00;;
60430;SDS011;46285;45.122;20.726;2022-07-06T13:28:29;5.23;;;2.03;;
60430;SDS011;46285;45.122;20.726;2022-07-06T13:30:56;5.00;;;1.90;;
60430;SDS011;46285;45.122;20.726;2022-07-06T13:33:22;6.80;;;2.00;;
60430;SDS011;46285;45.122;20.726;2022-07-06T13:35:48;7.20;;;2.37;;
60430;SDS011;46285;45.122;20.726;2022-07-06T13:38:14;5.37;;;2.23;;
60430;SDS011;46285;45.122;20.726;2022-07-06T13:40:40;6.87;;;2.40;;
60430;SDS011;46285;45.122;20.726;2022-07-06T13:43:06;4.73;;;2.17;;
60430;SDS011;46285;45.122;20.726;2022-07-06T13:45:32;13.10;;;2.92;;
60430;SDS011;46285;45.122;20.726;2022-07-06T13:47:58;4.90;;;2.40;;
60430;SDS011;46285;45.122;20.726;2022-07-06T13:50:25;7.77;;;2.67;;
60430;SDS011;46285;45.122;20.726;2022-07-06T13:52:52;12.27;;;2.53;;
60430;SDS011;46285;45.122;20.726;2022-07-06T13:55:19;6.10;;;2.42;;
60430;SDS011;46285;45.122;20.726;2022-07-06T13:57:45;5.70;;;2.43;;
60430;SDS011;46285;45.122;20.726;2022-07-06T14:00:13;6.40;;;2.67;;
60430;SDS011;46285;45.122;20.726;2022-07-06T14:02:39;9.25;;;2.95;;
60430;SDS011;46285;45.122;20.726;2022-07-06T14:05:05;6.53;;;2.85;;
60430;SDS011;46285;45.122;20.726;2022-07-06T14:07:32;12.57;;;3.80;;
60430;SDS011;46285;45.122;20.726;2022-07-06T14:09:58;8.57;;;2.70;;
60430;SDS011;46285;45.122;20.726;2022-07-06T14:12:24;8.93;;;3.00;;
60430;SDS011;46285;45.122;20.726;2022-07-06T14:14:51;6.93;;;3.20;;
60430;SDS011;46285;45.122;20.726;2022-07-06T14:17:17;5.00;;;2.93;;
60430;SDS011;46285;45.122;20.726;2022-07-06T14:19:43;6.93;;;4.22;;
60430;SDS011;46285;45.122;20.726;2022-07-06T14:22:09;6.37;;;3.13;;
60430;SDS011;46285;45.122;20.726;2022-07-06T14:24:36;5.95;;;3.70;;
60430;SDS011;46285;45.122;20.726;2022-07-06T14:27:02;8.15;;;3.95;;
60430;SDS011;46285;45.122;20.726;2022-07-06T14:29:28;7.15;;;3.80;;
60430;SDS011;46285;45.122;20.726;2022-07-06T14:31:54;8.10;;;4.43;;
60430;SDS011;46285;45.122;20.726;2022-07-06T14:34:20;8.25;;;4.00;;
60430;SDS011;46285;45.122;20.726;2022-07-06T14:36:46;9.60;;;4.50;;
60430;SDS011;46285;45.122;20.726;2022-07-06T14:39:13;6.70;;;4.13;;
60430;SDS011;46285;45.122;20.726;2022-07-06T14:41:39;9.40;;;4.00;;
60430;SDS011;46285;45.122;20.726;2022-07-06T14:44:05;8.60;;;4.22;;
60430;SDS011;46285;45.122;20.726;2022-07-06T14:46:31;8.37;;;4.23;;
60430;SDS011;46285;45.122;20.726;2022-07-06T14:48:59;9.30;;;4.70;;
60430;SDS011;46285;45.122;20.726;2022-07-06T14:51:25;6.63;;;3.47;;